createdAt,value
2018-10-03T00:01:23.249Z,100449.64
2018-10-03T00:03:51.343Z,100437.69
2018-10-03T00:06:19.362Z,100438.41
2018-10-03T00:08:47.477Z,100445.05
2018-10-03T00:11:15.501Z,100446.92
2018-10-03T00:13:43.566Z,100453.32
2018-10-03T00:16:11.685Z,100453.87
2018-10-03T00:18:39.843Z,100452.09
2018-10-03T00:21:07.893Z,100460.28
2018-10-03T00:23:35.954Z,100457.48
2018-10-03T00:26:04.077Z,100461.23
2018-10-03T00:28:32.110Z,100456.52
2018-10-03T00:31:00.138Z,100457.64
2018-10-03T00:33:28.243Z,100460.00
2018-10-03T00:35:56.368Z,100469.16
2018-10-03T00:38:24.488Z,100467.83
2018-10-03T00:40:52.697Z,100466.80
2018-10-03T00:43:20.798Z,100466.52
2018-10-03T00:45:48.845Z,100476.11
2018-10-03T00:48:17.026Z,100480.63
2018-10-03T00:50:45.086Z,100476.67
2018-10-03T00:53:13.226Z,100474.34
2018-10-03T00:55:41.230Z,100474.23
2018-10-03T00:58:09.286Z,100478.59
2018-10-03T01:00:37.366Z,100477.06
2018-10-03T01:03:05.418Z,100484.59
2018-10-03T01:05:33.434Z,100491.39
2018-10-03T01:08:01.497Z,100486.86
2018-10-03T01:10:29.687Z,100488.95
2018-10-03T01:12:57.803Z,100505.23
2018-10-03T01:15:25.910Z,100497.23
2018-10-03T01:17:53.933Z,100503.06
2018-10-03T01:20:21.958Z,100496.38
2018-10-03T01:22:50.026Z,100505.51
2018-10-03T01:25:18.122Z,100517.95
2018-10-03T01:27:46.161Z,100509.10
2018-10-03T01:30:14.192Z,100516.62
2018-10-03T01:32:42.324Z,100514.82
2018-10-03T01:35:10.547Z,100508.72
2018-10-03T01:37:38.602Z,100501.53
2018-10-03T01:40:06.643Z,100501.71
2018-10-03T01:42:34.765Z,100500.52
2018-10-03T01:45:02.803Z,100502.09
2018-10-03T01:47:30.830Z,100504.20
2018-10-03T01:49:58.865Z,100501.73
2018-10-03T01:52:26.986Z,100512.67
2018-10-03T01:54:55.026Z,100510.95
2018-10-03T01:57:23.102Z,100515.25
2018-10-03T01:59:51.118Z,100508.92
2018-10-03T02:02:19.202Z,100511.91
2018-10-03T02:04:47.310Z,100515.94
2018-10-03T02:07:15.390Z,100513.33
2018-10-03T02:09:43.530Z,100518.90
2018-10-03T02:12:11.725Z,100525.78
2018-10-03T02:14:39.880Z,100528.63
2018-10-03T02:17:07.922Z,100535.50
2018-10-03T02:19:35.990Z,100546.05
2018-10-03T02:22:04.026Z,100560.38
2018-10-03T02:24:32.114Z,100565.27
2018-10-03T02:27:00.296Z,100568.63
2018-10-03T02:29:28.311Z,100569.55
2018-10-03T02:31:56.321Z,100575.95
2018-10-03T02:34:24.475Z,100569.63
2018-10-03T02:36:52.558Z,100567.47
2018-10-03T02:39:20.620Z,100565.58
2018-10-03T02:41:48.810Z,100566.79
2018-10-03T02:44:16.884Z,100554.91
2018-10-03T02:46:45.033Z,100559.63
2018-10-03T02:49:13.150Z,100563.87
2018-10-03T02:51:41.214Z,100560.19
2018-10-03T02:54:09.317Z,100559.81
2018-10-03T02:56:37.526Z,100545.95
2018-10-03T02:59:05.591Z,100542.10
2018-10-03T03:01:33.638Z,100551.61
2018-10-03T03:04:01.706Z,100548.13
2018-10-03T03:06:29.757Z,100541.62
2018-10-03T03:08:57.888Z,100547.94
2018-10-03T03:11:25.914Z,100546.06
2018-10-03T03:13:53.983Z,100556.98
2018-10-03T03:16:22.014Z,100558.12
2018-10-03T03:18:50.078Z,100565.65
2018-10-03T03:21:18.145Z,100573.95
2018-10-03T03:23:46.329Z,100573.66
2018-10-03T03:26:14.342Z,100578.47
2018-10-03T03:28:42.369Z,100581.87
2018-10-03T03:31:10.630Z,100592.79
2018-10-03T03:33:38.735Z,100580.45
2018-10-03T03:36:06.798Z,100586.38
2018-10-03T03:38:34.895Z,100587.42
2018-10-03T03:41:02.971Z,100599.75
2018-10-03T03:43:30.994Z,100595.81
2018-10-03T03:45:59.184Z,100601.64
2018-10-03T03:48:27.264Z,100590.53
2018-10-03T03:50:55.359Z,100603.13
2018-10-03T03:53:23.488Z,100600.50
2018-10-03T03:55:51.682Z,100600.97
2018-10-03T04:00:57.320Z,100600.77
2018-10-03T04:03:25.360Z,100595.43
2018-10-03T04:05:53.498Z,100596.92
2018-10-03T04:08:21.545Z,100607.19
2018-10-03T04:10:49.683Z,100603.20
2018-10-03T04:13:17.733Z,100606.31
2018-10-03T04:15:45.925Z,100613.41
2018-10-03T04:18:14.117Z,100615.09
2018-10-03T04:20:42.130Z,100620.08
2018-10-03T04:23:10.240Z,100624.89
2018-10-03T04:25:38.304Z,100625.66
2018-10-03T04:28:06.349Z,100637.37
2018-10-03T04:30:34.390Z,100637.78
2018-10-03T04:33:02.534Z,100647.38
2018-10-03T04:35:30.688Z,100657.48
2018-10-03T04:37:58.749Z,100666.17
2018-10-03T04:40:26.806Z,100655.03
2018-10-03T04:42:54.896Z,100665.80
2018-10-03T04:45:22.934Z,100659.59
2018-10-03T04:47:51.097Z,100674.67
2018-10-03T04:50:19.159Z,100667.83
2018-10-03T04:52:47.189Z,100677.64
2018-10-03T04:55:15.277Z,100674.05
2018-10-03T04:57:43.325Z,100676.23
2018-10-03T05:00:11.496Z,100678.68
2018-10-03T05:02:39.542Z,100670.45
2018-10-03T05:05:07.582Z,100678.88
2018-10-03T05:07:35.702Z,100672.36
2018-10-03T05:10:03.791Z,100674.52
2018-10-03T05:12:31.830Z,100674.80
2018-10-03T05:14:59.894Z,100679.34
2018-10-03T05:17:27.981Z,100680.67
2018-10-03T05:19:56.190Z,100689.06
2018-10-03T05:22:24.236Z,100691.53
2018-10-03T05:24:52.327Z,100687.17
2018-10-03T05:27:20.390Z,100680.96
2018-10-03T05:29:48.440Z,100679.16
2018-10-03T05:32:16.592Z,100693.96
2018-10-03T05:34:44.714Z,100697.42
2018-10-03T05:37:12.806Z,100708.30
2018-10-03T05:39:40.863Z,100696.23
2018-10-03T05:42:08.876Z,100705.95
2018-10-03T05:44:36.950Z,100708.63
2018-10-03T05:47:04.995Z,100712.99
2018-10-03T05:49:33.066Z,100718.20
2018-10-03T05:52:01.085Z,100717.35
2018-10-03T05:54:29.167Z,100729.63
2018-10-03T05:56:57.173Z,100722.53
2018-10-03T05:59:25.257Z,100719.27
2018-10-03T06:01:53.312Z,100722.77
2018-10-03T06:04:21.370Z,100724.64
2018-10-03T06:06:49.426Z,100730.48
2018-10-03T06:09:17.510Z,100731.52
2018-10-03T06:11:45.543Z,100735.87
2018-10-03T06:14:13.616Z,100740.59
2018-10-03T06:16:41.645Z,100746.25
2018-10-03T06:19:09.726Z,100758.59
2018-10-03T06:21:37.845Z,100762.67
2018-10-03T06:24:05.776Z,100770.14
2018-10-03T06:26:34.035Z,100778.72
2018-10-03T06:29:02.063Z,100787.42
2018-10-03T06:31:30.106Z,100785.64
2018-10-03T06:33:58.172Z,100802.12
2018-10-03T06:36:26.237Z,100794.97
2018-10-03T06:38:54.286Z,100803.56
2018-10-03T06:41:22.424Z,100809.97
2018-10-03T06:43:50.460Z,100803.33
2018-10-03T06:46:18.514Z,100814.45
2018-10-03T06:48:46.606Z,100826.63
2018-10-03T06:51:14.659Z,100820.89
2018-10-03T06:53:42.681Z,100830.80
2018-10-03T06:56:10.716Z,100826.59
2018-10-03T06:58:38.819Z,100840.94
2018-10-03T07:01:06.949Z,100845.39
2018-10-03T07:03:35.007Z,100856.41
2018-10-03T07:06:03.076Z,100854.81
2018-10-03T07:08:31.113Z,100868.88
2018-10-03T07:10:59.155Z,100865.81
2018-10-03T07:13:27.224Z,100874.64
2018-10-03T07:15:55.349Z,100883.90
2018-10-03T07:18:23.479Z,100887.48
2018-10-03T07:20:51.512Z,100890.31
2018-10-03T07:23:19.610Z,100903.55
2018-10-03T07:25:47.685Z,100911.86
2018-10-03T07:28:15.715Z,100918.80
2018-10-03T07:30:43.741Z,100915.50
2018-10-03T07:33:11.788Z,100924.83
2018-10-03T07:35:39.826Z,100925.33
2018-10-03T07:38:07.985Z,100933.44
2018-10-03T07:40:36.034Z,100931.92
2018-10-03T07:43:04.054Z,100937.44
2018-10-03T07:45:32.153Z,100938.98
2018-10-03T07:48:00.201Z,100938.97
2018-10-03T07:50:28.246Z,100947.04
2018-10-03T07:52:56.259Z,100946.72
2018-10-03T07:55:24.283Z,100935.95
2018-10-03T07:57:53.365Z,100946.23
2018-10-03T08:00:27.006Z,100945.70
2018-10-03T08:02:55.028Z,100953.42
2018-10-03T08:05:23.097Z,100960.80
2018-10-03T08:07:51.523Z,100973.99
2018-10-03T08:10:19.601Z,100979.99
2018-10-03T08:12:47.694Z,100984.26
2018-10-03T08:15:15.784Z,100982.44
2018-10-03T08:17:43.808Z,100989.37
2018-10-03T08:20:11.855Z,100994.23
2018-10-03T08:22:40.253Z,101001.66
2018-10-03T08:25:08.285Z,101005.38
2018-10-03T08:27:36.351Z,101021.78
2018-10-03T08:30:04.641Z,101015.27
2018-10-03T08:32:32.776Z,101013.41
2018-10-03T08:35:00.750Z,101018.83
2018-10-03T08:37:28.798Z,101022.05
2018-10-03T08:39:56.970Z,101025.36
2018-10-03T08:42:25.029Z,101045.84
2018-10-03T08:44:53.088Z,101044.13
2018-10-03T08:47:21.144Z,101056.41
2018-10-03T08:49:49.186Z,101050.69
2018-10-03T08:52:17.282Z,101051.41
2018-10-03T08:54:45.310Z,101061.65
2018-10-03T08:57:13.341Z,101063.03
2018-10-03T08:59:41.402Z,101064.83
2018-10-03T09:02:09.440Z,101068.33
2018-10-03T09:04:37.540Z,101072.19
2018-10-03T09:07:05.704Z,101074.28
2018-10-03T09:09:33.763Z,101077.50
2018-10-03T09:12:01.874Z,101077.64
2018-10-03T09:14:29.953Z,101087.17
2018-10-03T09:16:58.003Z,101090.37
2018-10-03T09:19:26.034Z,101091.45
2018-10-03T09:21:54.145Z,101093.31
2018-10-03T09:24:22.132Z,101084.11
2018-10-03T09:26:50.150Z,101094.48
2018-10-03T09:29:18.193Z,101101.14
2018-10-03T09:31:46.302Z,101103.80
2018-10-03T09:34:14.369Z,101112.56
2018-10-03T09:36:42.435Z,101124.50
2018-10-03T09:39:11.842Z,101110.84
2018-10-03T09:41:40.118Z,101132.16
2018-10-03T09:44:08.637Z,101137.56
2018-10-03T09:46:36.670Z,101147.36
2018-10-03T09:49:04.962Z,101148.59
2018-10-03T09:51:33.141Z,101158.37
2018-10-03T09:54:01.183Z,101158.69
2018-10-03T09:56:29.246Z,101172.68
2018-10-03T09:58:57.265Z,101167.36
2018-10-03T10:01:30.496Z,101162.83
2018-10-03T10:03:59.670Z,101155.80
2018-10-03T10:06:28.094Z,101163.45
2018-10-03T10:08:56.185Z,101158.98
2018-10-03T10:11:24.310Z,101172.00
2018-10-03T10:13:52.297Z,101177.33
2018-10-03T10:16:20.446Z,101187.06
2018-10-03T10:18:48.541Z,101189.63
2018-10-03T10:21:16.638Z,101191.55
2018-10-03T10:23:45.047Z,101199.52
2018-10-03T10:26:13.299Z,101201.28
2018-10-03T10:28:41.371Z,101205.83
2018-10-03T10:31:09.466Z,101194.58
2018-10-03T10:33:37.515Z,101193.72
2018-10-03T10:36:05.847Z,101194.50
2018-10-03T10:38:34.066Z,101196.50
2018-10-03T10:41:02.137Z,101196.48
2018-10-03T10:43:30.180Z,101199.89
2018-10-03T10:45:58.278Z,101202.94
2018-10-03T10:48:26.302Z,101205.85
2018-10-03T10:50:54.395Z,101223.23
2018-10-03T10:53:22.474Z,101225.02
2018-10-03T10:55:50.538Z,101226.97
2018-10-03T10:58:18.615Z,101227.23
2018-10-03T11:00:46.677Z,101227.95
2018-10-03T11:03:14.812Z,101226.14
2018-10-03T11:05:42.869Z,101235.42
2018-10-03T11:08:10.923Z,101236.31
2018-10-03T11:10:38.974Z,101241.23
2018-10-03T11:13:07.267Z,101235.44
2018-10-03T11:15:35.364Z,101239.00
2018-10-03T11:18:03.345Z,101242.02
2018-10-03T11:20:33.265Z,101248.52
2018-10-03T11:23:01.360Z,101253.86
2018-10-03T11:25:29.426Z,101261.60
2018-10-03T11:27:57.512Z,101269.11
2018-10-03T11:30:25.588Z,101262.58
2018-10-03T11:32:53.706Z,101267.55
2018-10-03T11:35:21.794Z,101264.67
2018-10-03T11:37:49.878Z,101265.28
2018-10-03T11:40:17.938Z,101251.80
2018-10-03T11:42:46.069Z,101257.95
2018-10-03T11:45:14.106Z,101266.47
2018-10-03T11:47:42.135Z,101262.73
2018-10-03T11:50:10.320Z,101269.19
2018-10-03T11:52:38.524Z,101268.31
2018-10-03T11:55:06.649Z,101274.48
2018-10-03T11:57:34.686Z,101276.60
2018-10-03T12:00:02.763Z,101271.84
2018-10-03T12:02:30.807Z,101274.36
2018-10-03T12:04:59.009Z,101281.43
2018-10-03T12:07:27.071Z,101282.46
2018-10-03T12:09:55.147Z,101281.97
2018-10-03T12:19:17.158Z,101312.86
2018-10-03T12:21:45.225Z,101311.17
2018-10-03T12:24:13.280Z,101318.52
2018-10-03T12:26:41.547Z,101315.14
2018-10-03T12:29:09.653Z,101310.31
2018-10-03T12:31:37.679Z,101320.28
2018-10-03T12:34:05.751Z,101318.83
2018-10-03T12:36:33.830Z,101320.06
2018-10-03T12:39:02.865Z,101323.50
2018-10-03T12:41:30.941Z,101320.66
2018-10-03T12:43:59.093Z,101323.96
2018-10-03T12:46:27.187Z,101320.63
2018-10-03T12:48:55.199Z,101324.22
2018-10-03T12:51:23.249Z,101325.95
2018-10-03T12:53:51.302Z,101312.09
2018-10-03T12:56:19.387Z,101313.34
2018-10-03T12:58:47.410Z,101317.98
2018-10-03T13:01:15.657Z,101323.67
2018-10-03T13:03:43.850Z,101327.58
2018-10-03T13:06:11.950Z,101329.83
2018-10-03T13:08:40.053Z,101341.91
2018-10-03T13:11:08.225Z,101340.27
2018-10-03T13:13:36.452Z,101343.52
2018-10-03T13:16:04.511Z,101342.55
2018-10-03T13:18:32.667Z,101346.83
2018-10-03T13:21:00.755Z,101353.77
2018-10-03T13:23:28.886Z,101359.45
2018-10-03T13:25:57.920Z,101356.25
2018-10-03T13:28:25.983Z,101352.55
2018-10-03T13:30:54.183Z,101345.80
2018-10-03T13:33:22.227Z,101345.60
2018-10-03T13:35:50.474Z,101354.67
2018-10-03T13:38:18.630Z,101345.68
2018-10-03T13:40:46.779Z,101350.67
2018-10-03T13:43:14.769Z,101351.80
2018-10-03T13:45:42.821Z,101356.55
2018-10-03T13:48:10.959Z,101350.70
2018-10-03T13:50:39.010Z,101357.48
2018-10-03T13:53:07.061Z,101357.17
2018-10-03T13:55:35.217Z,101360.13
2018-10-03T13:58:03.329Z,101362.94
2018-10-03T14:00:31.442Z,101359.34
2018-10-03T14:02:59.516Z,101366.62
2018-10-03T14:05:27.609Z,101359.27
2018-10-03T14:07:55.679Z,101364.62
2018-10-03T14:10:23.725Z,101368.16
2018-10-03T14:12:51.847Z,101368.89
2018-10-03T14:15:19.896Z,101371.91
2018-10-03T14:17:47.968Z,101375.84
2018-10-03T14:20:16.006Z,101376.40
2018-10-03T14:22:44.078Z,101381.14
2018-10-03T14:25:12.149Z,101387.25
2018-10-03T14:27:40.202Z,101383.81
2018-10-03T14:30:08.265Z,101387.55
2018-10-03T14:32:36.346Z,101389.67
2018-10-03T14:35:04.411Z,101389.86
2018-10-03T14:37:32.527Z,101388.30
2018-10-03T14:40:00.622Z,101394.65
2018-10-03T14:42:28.702Z,101401.27
2018-10-03T14:44:56.769Z,101400.39
2018-10-03T14:47:24.825Z,101395.80
2018-10-03T14:49:52.881Z,101393.48
2018-10-03T14:52:21.150Z,101395.93
2018-10-03T14:54:55.719Z,101399.16
2018-10-03T14:57:23.733Z,101403.55
2018-10-03T14:59:51.799Z,101396.45
2018-10-03T15:02:19.856Z,101402.16
2018-10-03T15:04:47.886Z,101405.86
2018-10-03T15:07:15.942Z,101402.98
2018-10-03T15:09:43.969Z,101405.78
2018-10-03T15:12:12.054Z,101406.80
2018-10-03T15:14:40.086Z,101415.58
2018-10-03T15:17:08.121Z,101406.64
2018-10-03T15:19:36.293Z,101416.71
2018-10-03T15:22:04.325Z,101419.90
2018-10-03T15:24:32.333Z,101429.38
2018-10-03T15:27:00.393Z,101420.19
2018-10-03T15:29:28.440Z,101430.95
2018-10-03T15:31:56.492Z,101430.48
2018-10-03T15:34:24.666Z,101430.08
2018-10-03T15:36:52.698Z,101445.75
2018-10-03T15:39:20.855Z,101444.26
2018-10-03T15:41:48.910Z,101450.61
2018-10-03T15:44:17.021Z,101445.25
2018-10-03T15:46:45.049Z,101443.61
2018-10-03T15:49:13.090Z,101444.20
2018-10-03T15:51:41.182Z,101444.73
2018-10-03T15:54:09.222Z,101448.70
2018-10-03T15:56:37.377Z,101449.41
2018-10-03T15:59:05.426Z,101446.79
2018-10-03T16:01:33.468Z,101459.97
2018-10-03T16:04:01.577Z,101453.22
2018-10-03T16:06:29.805Z,101453.76
2018-10-03T16:08:57.838Z,101451.03
2018-10-03T16:11:26.942Z,101455.91
2018-10-03T16:13:55.032Z,101451.22
2018-10-03T16:16:23.090Z,101458.14
2018-10-03T16:18:51.135Z,101455.73
2018-10-03T16:21:19.206Z,101462.08
2018-10-03T16:23:47.253Z,101453.31
2018-10-03T16:26:15.427Z,101462.96
2018-10-03T16:28:43.441Z,101465.14
2018-10-03T16:31:11.536Z,101466.44
2018-10-03T16:33:39.594Z,101471.81
2018-10-03T16:36:07.770Z,101477.56
2018-10-03T16:38:35.965Z,101470.19
2018-10-03T16:41:04.020Z,101473.75
2018-10-03T16:43:32.102Z,101480.58
2018-10-03T16:46:00.168Z,101483.81
2018-10-03T16:48:28.251Z,101480.58
2018-10-03T16:50:56.285Z,101485.12
2018-10-03T16:53:24.346Z,101484.15
2018-10-03T16:55:52.386Z,101488.44
2018-10-03T16:58:20.503Z,101490.34
2018-10-03T17:00:48.577Z,101495.30
2018-10-03T17:03:16.661Z,101489.64
2018-10-03T17:05:44.702Z,101489.27
2018-10-03T17:08:12.739Z,101491.86
2018-10-03T17:10:40.834Z,101503.48
2018-10-03T17:13:09.063Z,101506.80
2018-10-03T17:15:37.241Z,101503.64
2018-10-03T17:18:05.382Z,101510.20
2018-10-03T17:20:33.471Z,101505.53
2018-10-03T17:23:01.650Z,101504.48
2018-10-03T17:25:29.690Z,101514.18
2018-10-03T17:27:57.798Z,101517.33
2018-10-03T17:30:25.846Z,101517.70
2018-10-03T17:32:53.914Z,101521.41
2018-10-03T17:35:22.020Z,101528.53
2018-10-03T17:37:50.074Z,101529.89
2018-10-03T17:40:19.118Z,101536.62
2018-10-03T17:42:47.365Z,101534.42
2018-10-03T17:45:15.416Z,101545.98
2018-10-03T17:47:43.650Z,101542.73
2018-10-03T17:50:11.805Z,101548.78
2018-10-03T17:52:41.025Z,101549.88
2018-10-03T17:55:09.261Z,101542.45
2018-10-03T17:57:37.399Z,101548.02
2018-10-03T18:00:05.682Z,101541.94
2018-10-03T18:02:33.756Z,101542.65
2018-10-03T18:05:02.926Z,101545.74
2018-10-03T18:07:31.046Z,101541.39
2018-10-03T18:09:59.192Z,101543.19
2018-10-03T18:12:27.281Z,101542.83
2018-10-03T18:14:55.402Z,101548.45
2018-10-03T18:17:23.437Z,101553.45
2018-10-03T18:19:51.914Z,101551.23
2018-10-03T18:22:19.942Z,101549.31
2018-10-03T18:24:48.158Z,101556.30
2018-10-03T18:27:16.224Z,101564.18
2018-10-03T18:29:44.276Z,101561.53
2018-10-03T18:32:12.395Z,101564.86
2018-10-03T18:34:40.442Z,101571.78
2018-10-03T18:37:08.491Z,101573.05
2018-10-03T18:39:36.673Z,101574.86
2018-10-03T18:42:04.737Z,101576.78
2018-10-03T18:44:32.799Z,101574.13
2018-10-03T18:47:00.859Z,101575.45
2018-10-03T18:49:28.978Z,101576.48
2018-10-03T18:51:57.037Z,101583.58
2018-10-03T18:54:25.090Z,101577.98
2018-10-03T18:56:53.107Z,101579.86
2018-10-03T18:59:22.166Z,101584.84
2018-10-03T19:01:50.322Z,101581.91
2018-10-03T19:04:18.356Z,101582.03
2018-10-03T19:06:46.410Z,101584.56
2018-10-03T19:09:14.449Z,101577.80
2018-10-03T19:11:42.785Z,101578.23
2018-10-03T19:14:10.926Z,101580.94
2018-10-03T19:16:38.942Z,101577.38
2018-10-03T19:19:06.988Z,101581.50
2018-10-03T19:21:35.031Z,101578.33
2018-10-03T19:24:03.074Z,101578.69
2018-10-03T19:26:31.174Z,101580.31
2018-10-03T19:28:59.235Z,101577.51
2018-10-03T19:31:27.249Z,101577.48
2018-10-03T19:33:55.290Z,101584.30
2018-10-03T19:36:23.335Z,101582.44
2018-10-03T19:38:51.476Z,101579.53
2018-10-03T19:41:19.743Z,101583.16
2018-10-03T19:43:47.850Z,101587.16
2018-10-03T19:46:15.964Z,101582.98
2018-10-03T19:48:44.010Z,101580.52
2018-10-03T19:51:12.181Z,101589.55
2018-10-03T19:53:40.226Z,101588.83
2018-10-03T19:56:08.250Z,101591.86
2018-10-03T19:58:36.350Z,101592.63
2018-10-03T20:01:04.431Z,101590.69
2018-10-03T20:03:32.522Z,101598.93
2018-10-03T20:06:01.543Z,101589.98
2018-10-03T20:08:30.646Z,101601.52
2018-10-03T20:10:58.697Z,101588.35
2018-10-03T20:13:26.814Z,101592.09
2018-10-03T20:15:54.991Z,101595.20
2018-10-03T20:18:23.275Z,101596.30
2018-10-03T20:20:51.892Z,101601.12
2018-10-03T20:23:20.141Z,101600.52
2018-10-03T20:25:48.169Z,101601.05
2018-10-03T20:28:16.338Z,101603.37
2018-10-03T20:30:44.466Z,101604.39
2018-10-03T20:33:12.494Z,101600.95
2018-10-03T20:35:42.556Z,101608.06
2018-10-03T20:38:10.622Z,101604.41
2018-10-03T20:40:38.735Z,101599.72
2018-10-03T20:43:06.833Z,101605.64
2018-10-03T20:45:34.868Z,101607.44
2018-10-03T20:48:02.880Z,101604.92
2018-10-03T20:50:30.979Z,101606.73
2018-10-03T20:52:59.014Z,101605.54
2018-10-03T20:55:27.099Z,101610.45
2018-10-03T20:57:55.171Z,101604.69
2018-10-03T21:00:23.257Z,101610.33
2018-10-03T21:02:51.393Z,101603.59
2018-10-03T21:05:19.498Z,101603.33
2018-10-03T21:07:47.526Z,101601.44
2018-10-03T21:10:15.602Z,101605.36
2018-10-03T21:12:43.638Z,101605.77
2018-10-03T21:15:11.726Z,101605.95
2018-10-03T21:17:39.898Z,101608.81
2018-10-03T21:20:08.014Z,101608.33
2018-10-03T21:22:36.122Z,101610.83
2018-10-03T21:25:04.313Z,101613.95
2018-10-03T21:27:32.305Z,101610.63
2018-10-03T21:30:00.355Z,101615.77
2018-10-03T21:32:28.389Z,101611.89
2018-10-03T21:34:56.457Z,101617.22
2018-10-03T21:37:24.664Z,101619.39
2018-10-03T21:39:52.722Z,101622.89
2018-10-03T21:42:20.814Z,101629.34
2018-10-03T21:44:48.902Z,101618.64
2018-10-03T21:47:16.958Z,101613.09
2018-10-03T21:49:45.084Z,101621.20
2018-10-03T21:52:13.100Z,101622.22
2018-10-03T21:54:41.183Z,101621.84
2018-10-03T21:57:09.283Z,101613.28
2018-10-03T21:59:37.506Z,101614.59
2018-10-03T22:02:05.571Z,101615.44
2018-10-03T22:04:33.578Z,101614.31
2018-10-03T22:07:01.651Z,101616.99
2018-10-03T22:09:29.741Z,101617.95
2018-10-03T22:11:57.781Z,101622.23
2018-10-03T22:14:25.851Z,101617.14
2018-10-03T22:16:53.895Z,101628.17
2018-10-03T22:19:22.076Z,101628.17
2018-10-03T22:21:50.159Z,101626.77
2018-10-03T22:24:18.186Z,101624.45
2018-10-03T22:26:46.253Z,101620.30
2018-10-03T22:29:14.390Z,101621.35
2018-10-03T22:31:42.437Z,101621.38
2018-10-03T22:34:10.574Z,101625.05
2018-10-03T22:36:38.628Z,101631.91
2018-10-03T22:39:07.703Z,101624.45
2018-10-03T22:41:35.958Z,101630.02
2018-10-03T22:44:04.018Z,101627.42
2018-10-03T22:46:32.145Z,101631.19
2018-10-03T22:49:00.166Z,101629.69
2018-10-03T22:51:28.214Z,101626.91
2018-10-03T22:53:56.246Z,101626.63
2018-10-03T22:56:24.374Z,101620.97
2018-10-03T22:58:52.445Z,101616.34
2018-10-03T23:01:20.556Z,101627.62
2018-10-03T23:03:48.646Z,101629.08
2018-10-03T23:06:16.760Z,101620.82
2018-10-03T23:08:44.746Z,101630.33
2018-10-03T23:11:12.805Z,101627.79
2018-10-03T23:13:40.834Z,101627.88
2018-10-03T23:16:08.931Z,101626.03
2018-10-03T23:18:37.038Z,101627.89
2018-10-03T23:21:05.114Z,101620.69
2018-10-03T23:23:33.143Z,101617.95
2018-10-03T23:26:01.170Z,101621.75
2018-10-03T23:28:29.193Z,101624.70
2018-10-03T23:30:57.240Z,101619.69
2018-10-03T23:33:25.282Z,101617.95
2018-10-03T23:35:53.310Z,101615.73
2018-10-03T23:38:21.376Z,101619.64
2018-10-03T23:40:49.457Z,101625.45
2018-10-03T23:43:17.558Z,101623.94
2018-10-03T23:45:45.622Z,101628.61
2018-10-03T23:48:13.678Z,101623.98
2018-10-03T23:50:41.693Z,101623.22
2018-10-03T23:53:09.760Z,101627.94
2018-10-03T23:55:37.807Z,101627.04
2018-10-03T23:58:05.869Z,101618.70
